Indian Mountain Lrrs Airport
PAIM : now visible

Airfield :











YOU CAN JOIN US ON...

 
LOGIN :

Register | Disclaimer

   EN    FR    IT 

 









Legend :    VFR   Marginal VFR   IFR   Intensive IFR   Very Intensive IFR
Visi :
Ceiling :
>= 8 km
>= 3000ft
5 to 8 km
1000 to 3000 ft
1500m to 5 km
500 to 1000 ft
800 to 1500m
200 to 500 ft
< 800m
< 200 ft
Symbols :   Thunderstorms  Fog  Heavy snow  Heavy precipitations  Wind > 20 kt






- Airport Elevation : 1273 ft
- IATA code : UTO


PAIM - Indian Mountain Lrrs

CURRENT METAR :
  • 010701Z AUTO 00000KT 2SM -RA BKN016 14/14 A2986 RMK AO2 SLP108

EXPIRED METARs :
  • 010655Z AUTO 00000KT 3SM -SHRA BKN016 14/14 A2986 RMK AO2 SHRAB0542E0608B0645 SLP109 T01420136
  • 010621Z AUTO 00000KT 10SM OVC019 14/14 A2986 RMK AO2 SLP107
  • 010601Z AUTO 00000KT 10SM -SHRA FEW008 BKN020 14/14 A2986 RMK AO2 SLP106
  • 010541Z AUTO 00000KT 10SM BKN007 15/14 A2985 RMK AO2 SLP105
  • 010521Z AUTO VRB01KT 10SM BKN006 OVC025 14/14 A2985 RMK AO2 SLP104
  • 010455Z AUTO 09003KT 10SM -RA OVC008 14/14 A2984 RMK AO2 RAB0355 SLP102 P0006 T01430138
  • 010421Z AUTO 00000KT 4SM RA BKN009 15/14 A2984 RMK AO2 SLP101

Expired Forecast.
PAZA FIR / North America



MET'MAP, your aeronautical weather chart ! - Copyright ORBIFLY December 2007 - Disclaimer

ORBIFLY MET'MAP TEAM :

Programming & Development : Alexandra Zaïnal
Concept & original design : Baudouin d'Aumeries
Assistance for programming : Marc-Olivier Méhu
Technical & hardware support : Manuel Goepfert

Contact : metmap@orbifly.com




SOURCES & CREDITS :

   NOAA       Earth
Advisory